createdAt,value
2017-07-25T19:00:11.155Z,991.9
2017-07-25T19:01:12.741Z,991.9
2017-07-25T19:03:04.388Z,992.0
2017-07-25T19:04:05.972Z,991.9
2017-07-25T19:05:57.896Z,992.1
2017-07-25T19:06:59.484Z,992.1
2017-07-25T19:08:51.139Z,992.0
2017-07-25T19:09:52.725Z,992.1
2017-07-25T19:11:46.185Z,992.1
2017-07-25T19:12:47.794Z,992.1
2017-07-25T19:14:40.036Z,992.2
2017-07-25T19:15:41.625Z,992.2
2017-07-25T19:17:33.572Z,992.2
2017-07-25T19:18:35.172Z,992.2
2017-07-25T19:20:26.811Z,992.3
2017-07-25T19:21:28.463Z,992.2
2017-07-25T19:23:20.438Z,992.2
2017-07-25T19:24:22.029Z,992.2
2017-07-25T19:26:13.668Z,992.2
2017-07-25T19:27:15.265Z,992.3
2017-07-25T19:29:07.261Z,992.3
2017-07-25T19:30:08.849Z,992.3
2017-07-25T19:32:00.728Z,992.3
2017-07-25T19:33:02.318Z,992.3
2017-07-25T19:34:54.266Z,992.3
2017-07-25T19:35:55.996Z,992.4
2017-07-25T19:37:47.677Z,992.4
2017-07-25T19:38:49.254Z,992.3
2017-07-25T19:40:41.183Z,992.3
2017-07-25T19:41:42.785Z,992.4
2017-07-25T19:43:34.431Z,992.4
2017-07-25T19:44:36.037Z,992.3
2017-07-25T19:46:27.980Z,992.4
2017-07-25T19:47:29.570Z,992.4
2017-07-25T19:49:21.223Z,992.4
2017-07-25T19:50:22.809Z,992.4
2017-07-25T19:52:14.795Z,992.4
2017-07-25T19:53:16.419Z,992.4
2017-07-25T19:55:08.067Z,992.5
2017-07-25T19:56:09.674Z,992.4
2017-07-25T19:58:01.732Z,992.4
2017-07-25T19:59:03.334Z,992.5
2017-07-25T20:00:54.981Z,992.5
2017-07-25T20:01:56.573Z,992.5
2017-07-25T20:03:48.642Z,992.4
2017-07-25T20:04:50.232Z,992.5
2017-07-25T20:06:41.885Z,992.5
2017-07-25T20:07:43.471Z,992.5
2017-07-25T20:09:35.436Z,992.6
2017-07-25T20:10:37.023Z,992.5
2017-07-25T20:12:28.726Z,992.5
2017-07-25T20:13:30.316Z,992.5
2017-07-25T20:15:22.410Z,992.5
2017-07-25T20:16:24.013Z,992.6
2017-07-25T20:18:15.651Z,992.5
2017-07-25T20:19:17.242Z,992.5
2017-07-25T20:21:09.256Z,992.6
2017-07-25T20:22:10.858Z,992.5
2017-07-25T20:24:02.507Z,992.5
2017-07-25T20:25:04.107Z,992.5
2017-07-25T20:26:56.169Z,992.6
2017-07-25T20:27:57.769Z,992.5
2017-07-25T20:29:49.426Z,992.5
2017-07-25T20:30:51.014Z,992.6
2017-07-25T20:32:42.989Z,992.5
2017-07-25T20:33:44.613Z,992.5
2017-07-25T20:35:36.254Z,992.6
2017-07-25T20:36:37.861Z,992.5
2017-07-25T20:38:29.838Z,992.5
2017-07-25T20:39:31.423Z,992.5
2017-07-25T20:41:23.063Z,992.5
2017-07-25T20:42:24.652Z,992.5
2017-07-25T20:44:16.603Z,992.5
2017-07-25T20:45:18.207Z,992.5
2017-07-25T20:47:09.843Z,992.6
2017-07-25T20:48:11.445Z,992.5
2017-07-25T20:50:03.433Z,992.6
2017-07-25T20:51:05.036Z,992.6
2017-07-25T20:52:56.688Z,992.6
2017-07-25T20:53:58.273Z,992.6
2017-07-25T20:55:50.356Z,992.6
2017-07-25T20:56:51.941Z,992.6
2017-07-25T20:58:43.581Z,992.6
2017-07-25T20:59:45.172Z,992.6
2017-07-25T21:01:37.051Z,992.6
2017-07-25T21:02:38.639Z,992.5
2017-07-25T21:04:30.290Z,992.6
2017-07-25T21:05:31.876Z,992.6
2017-07-25T21:07:23.727Z,992.5
2017-07-25T21:08:25.539Z,992.6
2017-07-25T21:10:17.177Z,992.6
2017-07-25T21:11:18.766Z,992.6
2017-07-25T21:13:10.793Z,992.6
2017-07-25T21:14:12.379Z,992.6
2017-07-25T21:16:04.041Z,992.6
2017-07-25T21:17:05.647Z,992.6
2017-07-25T21:18:57.674Z,992.7
2017-07-25T21:19:59.297Z,992.7
2017-07-25T21:21:50.945Z,992.7
2017-07-25T21:22:52.547Z,992.7
2017-07-25T21:24:45.513Z,992.7
2017-07-25T21:39:44.172Z,992.6
2017-07-25T21:40:45.774Z,992.6
2017-07-25T21:42:37.413Z,992.6
2017-07-25T21:43:39.005Z,992.6
2017-07-25T21:45:30.995Z,992.5
2017-07-25T21:46:32.580Z,992.5
2017-07-25T21:48:24.234Z,992.5
2017-07-25T21:49:25.835Z,992.5
2017-07-25T21:51:17.897Z,992.6
2017-07-25T21:52:19.481Z,992.5
2017-07-25T21:54:11.137Z,992.5
2017-07-25T21:55:12.738Z,992.5
2017-07-25T21:57:04.685Z,992.5
2017-07-25T21:58:06.286Z,992.6
2017-07-25T21:59:57.929Z,992.5
2017-07-25T22:00:59.534Z,992.5
2017-07-25T22:02:51.360Z,992.5
2017-07-25T22:03:52.961Z,992.5
2017-07-25T22:05:44.599Z,992.5
2017-07-25T22:06:46.185Z,992.6
2017-07-25T22:08:38.157Z,992.6
2017-07-25T22:09:39.746Z,992.6
2017-07-25T22:11:31.383Z,992.6
2017-07-25T22:12:32.990Z,992.6
2017-07-25T22:14:24.923Z,992.6
2017-07-25T22:15:26.528Z,992.6
2017-07-25T22:17:18.176Z,992.6
2017-07-25T22:18:19.761Z,992.6
2017-07-25T22:20:11.771Z,992.6
2017-07-25T22:21:13.357Z,992.6
2017-07-25T22:23:04.994Z,992.6
2017-07-25T22:24:07.121Z,992.6
2017-07-25T22:25:59.105Z,992.5
2017-07-25T22:27:00.933Z,992.5
2017-07-25T22:28:52.574Z,992.5
2017-07-25T22:29:54.212Z,992.5
2017-07-25T22:31:46.057Z,992.5
2017-07-25T22:32:47.647Z,992.4
2017-07-25T22:34:39.286Z,992.5
2017-07-25T22:35:40.877Z,992.6
2017-07-25T22:37:32.914Z,992.6
2017-07-25T22:38:34.500Z,992.6
2017-07-25T22:40:26.142Z,992.6
2017-07-25T22:50:06.863Z,992.6
2017-07-25T22:51:08.490Z,992.6
2017-07-25T22:53:00.165Z,992.5
2017-07-25T22:54:01.763Z,992.5
2017-07-25T22:55:53.837Z,992.5
2017-07-25T22:56:55.423Z,992.5
2017-07-25T22:58:47.062Z,992.5
2017-07-25T22:59:48.669Z,992.4
2017-07-25T23:01:40.634Z,992.4
2017-07-25T23:02:42.234Z,992.4
2017-07-25T23:04:33.867Z,992.4
2017-07-25T23:05:35.453Z,992.4
2017-07-25T23:07:27.388Z,992.4
2017-07-25T23:08:28.997Z,992.3
2017-07-25T23:10:20.690Z,992.4
2017-07-25T23:11:22.288Z,992.3
2017-07-25T23:13:14.277Z,992.4
2017-07-25T23:14:15.855Z,992.4
2017-07-25T23:16:07.499Z,992.3
2017-07-25T23:17:09.097Z,992.3
2017-07-25T23:19:01.169Z,992.3
2017-07-25T23:20:02.757Z,992.4
2017-07-25T23:21:54.393Z,992.3
2017-07-25T23:22:55.994Z,992.3
2017-07-25T23:24:47.973Z,992.3
2017-07-25T23:25:49.583Z,992.3
2017-07-25T23:27:41.214Z,992.3
2017-07-25T23:28:42.808Z,992.3
2017-07-25T23:30:34.772Z,992.4
2017-07-25T23:31:36.374Z,992.3
2017-07-25T23:33:28.023Z,992.4
2017-07-25T23:34:29.622Z,992.3
2017-07-25T23:36:21.465Z,992.4
2017-07-25T23:37:23.053Z,992.5
2017-07-25T23:39:14.701Z,992.4
2017-07-25T23:40:16.287Z,992.4
2017-07-25T23:42:08.124Z,992.4
2017-07-25T23:43:09.728Z,992.4
2017-07-25T23:45:01.391Z,992.4
2017-07-25T23:46:02.976Z,992.4
2017-07-25T23:47:54.937Z,992.4
2017-07-25T23:48:56.535Z,992.4
2017-07-25T23:50:48.181Z,992.3
2017-07-25T23:51:49.768Z,992.4
2017-07-25T23:53:41.752Z,992.4
2017-07-25T23:54:43.987Z,992.4
2017-07-25T23:56:35.621Z,992.4
2017-07-25T23:57:37.223Z,992.5
2017-07-25T23:59:29.080Z,992.4
